Terminal Aerodrome Forecast
Issued by NWS Sioux Falls, SD

Home | Current Version | Previous Version | Graphics & Text | Print | Product List | Glossary On
Versions: 1 2 3 4 5 6 7 8 9 10 11 12 13 14 15 16 17 18
000
FTUS43 KFSD 221603 AAB
TAFFSD
TAF AMD
KFSD 221603Z 2216/2312 34006KT P6SM SCT018 BKN250
      TEMPO 2216/2217 BKN018
     FM221800 33008KT P6SM SCT022 BKN140
     FM230300 32004KT P6SM FEW250=

USA.gov is the U.S. government's official web portal to all federal, state and local government web resources and services.